sensor_id;sensor_type;location;lat;lon;timestamp;P1;durP1;ratioP1;P2;durP2;ratioP2
10900;SDS011;5503;53.208;10.392;2023-02-28T00:01:07;14.85;;;6.38;;
10900;SDS011;5503;53.208;10.392;2023-02-28T00:03:34;11.60;;;5.93;;
10900;SDS011;5503;53.208;10.392;2023-02-28T00:06:01;12.38;;;5.82;;
10900;SDS011;5503;53.208;10.392;2023-02-28T00:08:29;8.30;;;4.47;;
10900;SDS011;5503;53.208;10.392;2023-02-28T00:11:00;11.23;;;5.37;;
10900;SDS011;5503;53.208;10.392;2023-02-28T00:13:27;13.63;;;4.70;;
10900;SDS011;5503;53.208;10.392;2023-02-28T00:16:00;9.85;;;4.80;;
10900;SDS011;5503;53.208;10.392;2023-02-28T00:18:28;10.98;;;5.25;;
10900;SDS011;5503;53.208;10.392;2023-02-28T00:20:55;11.13;;;5.70;;
10900;SDS011;5503;53.208;10.392;2023-02-28T00:23:22;15.23;;;5.53;;
10900;SDS011;5503;53.208;10.392;2023-02-28T00:25:49;14.95;;;5.80;;
10900;SDS011;5503;53.208;10.392;2023-02-28T00:28:18;10.05;;;5.00;;
10900;SDS011;5503;53.208;10.392;2023-02-28T00:30:45;9.75;;;5.45;;
10900;SDS011;5503;53.208;10.392;2023-02-28T00:33:12;10.20;;;5.03;;
10900;SDS011;5503;53.208;10.392;2023-02-28T00:35:39;10.83;;;5.03;;
10900;SDS011;5503;53.208;10.392;2023-02-28T00:38:06;10.25;;;4.70;;
10900;SDS011;5503;53.208;10.392;2023-02-28T00:40:33;6.72;;;4.45;;
10900;SDS011;5503;53.208;10.392;2023-02-28T00:43:00;12.73;;;5.10;;
10900;SDS011;5503;53.208;10.392;2023-02-28T00:45:29;8.60;;;4.80;;
10900;SDS011;5503;53.208;10.392;2023-02-28T00:47:56;9.00;;;4.53;;
10900;SDS011;5503;53.208;10.392;2023-02-28T00:50:23;10.10;;;4.95;;
10900;SDS011;5503;53.208;10.392;2023-02-28T00:52:50;10.25;;;4.50;;
10900;SDS011;5503;53.208;10.392;2023-02-28T00:55:17;7.65;;;4.25;;
10900;SDS011;5503;53.208;10.392;2023-02-28T00:57:44;8.00;;;3.85;;
10900;SDS011;5503;53.208;10.392;2023-02-28T01:00:12;7.67;;;3.90;;
10900;SDS011;5503;53.208;10.392;2023-02-28T01:02:40;10.18;;;4.22;;
10900;SDS011;5503;53.208;10.392;2023-02-28T01:05:07;7.57;;;4.13;;
10900;SDS011;5503;53.208;10.392;2023-02-28T01:07:34;11.70;;;4.25;;
10900;SDS011;5503;53.208;10.392;2023-02-28T01:10:01;10.07;;;3.80;;
10900;SDS011;5503;53.208;10.392;2023-02-28T01:12:28;10.60;;;4.33;;
10900;SDS011;5503;53.208;10.392;2023-02-28T01:14:55;9.40;;;4.05;;
10900;SDS011;5503;53.208;10.392;2023-02-28T01:17:22;8.30;;;4.00;;
10900;SDS011;5503;53.208;10.392;2023-02-28T01:19:52;8.40;;;3.80;;
10900;SDS011;5503;53.208;10.392;2023-02-28T01:22:19;9.05;;;4.40;;
10900;SDS011;5503;53.208;10.392;2023-02-28T01:24:46;9.70;;;4.57;;
10900;SDS011;5503;53.208;10.392;2023-02-28T01:27:13;7.50;;;4.40;;
10900;SDS011;5503;53.208;10.392;2023-02-28T01:29:40;10.73;;;4.25;;
10900;SDS011;5503;53.208;10.392;2023-02-28T01:32:07;8.07;;;4.45;;
10900;SDS011;5503;53.208;10.392;2023-02-28T01:34:34;12.05;;;4.30;;
10900;SDS011;5503;53.208;10.392;2023-02-28T01:37:02;8.20;;;4.03;;
10900;SDS011;5503;53.208;10.392;2023-02-28T01:39:29;7.90;;;4.20;;
10900;SDS011;5503;53.208;10.392;2023-02-28T01:41:56;8.38;;;3.90;;
10900;SDS011;5503;53.208;10.392;2023-02-28T01:47:23;9.00;;;4.88;;
10900;SDS011;5503;53.208;10.392;2023-02-28T01:49:53;8.30;;;4.30;;
10900;SDS011;5503;53.208;10.392;2023-02-28T01:52:22;7.50;;;3.95;;
10900;SDS011;5503;53.208;10.392;2023-02-28T01:54:51;8.23;;;4.50;;
10900;SDS011;5503;53.208;10.392;2023-02-28T01:57:21;7.57;;;4.15;;
10900;SDS011;5503;53.208;10.392;2023-02-28T01:59:52;8.88;;;4.60;;
10900;SDS011;5503;53.208;10.392;2023-02-28T02:02:23;8.17;;;4.33;;
10900;SDS011;5503;53.208;10.392;2023-02-28T02:04:51;7.53;;;4.10;;
10900;SDS011;5503;53.208;10.392;2023-02-28T02:07:22;8.32;;;4.13;;
10900;SDS011;5503;53.208;10.392;2023-02-28T02:09:56;8.98;;;4.72;;
10900;SDS011;5503;53.208;10.392;2023-02-28T02:12:27;7.72;;;4.22;;
10900;SDS011;5503;53.208;10.392;2023-02-28T02:15:11;8.43;;;4.60;;
10900;SDS011;5503;53.208;10.392;2023-02-28T02:17:43;9.13;;;4.32;;
10900;SDS011;5503;53.208;10.392;2023-02-28T02:20:32;7.28;;;4.15;;
10900;SDS011;5503;53.208;10.392;2023-02-28T02:23:25;7.05;;;4.13;;
10900;SDS011;5503;53.208;10.392;2023-02-28T02:26:34;7.97;;;4.72;;
10900;SDS011;5503;53.208;10.392;2023-02-28T02:35:13;8.60;;;4.13;;
10900;SDS011;5503;53.208;10.392;2023-02-28T02:37:43;6.07;;;4.30;;
10900;SDS011;5503;53.208;10.392;2023-02-28T02:40:16;7.75;;;4.40;;
10900;SDS011;5503;53.208;10.392;2023-02-28T02:42:48;8.63;;;5.00;;
10900;SDS011;5503;53.208;10.392;2023-02-28T02:45:19;7.25;;;3.83;;
10900;SDS011;5503;53.208;10.392;2023-02-28T02:47:52;7.20;;;4.20;;
10900;SDS011;5503;53.208;10.392;2023-02-28T02:50:24;8.18;;;4.03;;
10900;SDS011;5503;53.208;10.392;2023-02-28T02:52:56;6.93;;;4.20;;
10900;SDS011;5503;53.208;10.392;2023-02-28T02:55:27;8.17;;;4.13;;
10900;SDS011;5503;53.208;10.392;2023-02-28T02:57:57;11.55;;;4.07;;
10900;SDS011;5503;53.208;10.392;2023-02-28T03:00:29;8.35;;;3.92;;
10900;SDS011;5503;53.208;10.392;2023-02-28T03:03:00;8.45;;;3.78;;
10900;SDS011;5503;53.208;10.392;2023-02-28T03:05:31;10.70;;;4.35;;
10900;SDS011;5503;53.208;10.392;2023-02-28T03:08:05;10.77;;;4.07;;
10900;SDS011;5503;53.208;10.392;2023-02-28T03:10:34;10.00;;;4.30;;
10900;SDS011;5503;53.208;10.392;2023-02-28T03:19:06;8.63;;;4.43;;
10900;SDS011;5503;53.208;10.392;2023-02-28T03:21:49;7.10;;;4.13;;
10900;SDS011;5503;53.208;10.392;2023-02-28T03:24:24;9.63;;;4.28;;
10900;SDS011;5503;53.208;10.392;2023-02-28T03:26:59;7.25;;;4.22;;
10900;SDS011;5503;53.208;10.392;2023-02-28T03:29:33;9.75;;;4.95;;
10900;SDS011;5503;53.208;10.392;2023-02-28T03:32:03;10.45;;;4.40;;
10900;SDS011;5503;53.208;10.392;2023-02-28T03:34:39;9.77;;;5.27;;
10900;SDS011;5503;53.208;10.392;2023-02-28T03:37:15;9.18;;;4.68;;
10900;SDS011;5503;53.208;10.392;2023-02-28T03:39:46;8.48;;;4.35;;
10900;SDS011;5503;53.208;10.392;2023-02-28T03:42:18;7.20;;;4.15;;
10900;SDS011;5503;53.208;10.392;2023-02-28T03:44:48;6.40;;;4.10;;
10900;SDS011;5503;53.208;10.392;2023-02-28T03:47:20;10.33;;;4.70;;
10900;SDS011;5503;53.208;10.392;2023-02-28T03:49:52;9.57;;;4.28;;
10900;SDS011;5503;53.208;10.392;2023-02-28T03:52:22;7.80;;;4.55;;
10900;SDS011;5503;53.208;10.392;2023-02-28T03:54:54;9.05;;;4.68;;
10900;SDS011;5503;53.208;10.392;2023-02-28T03:57:30;8.52;;;4.65;;
10900;SDS011;5503;53.208;10.392;2023-02-28T04:00:04;7.30;;;4.30;;
10900;SDS011;5503;53.208;10.392;2023-02-28T04:02:36;7.18;;;4.22;;
10900;SDS011;5503;53.208;10.392;2023-02-28T04:05:03;12.63;;;4.22;;
10900;SDS011;5503;53.208;10.392;2023-02-28T04:07:31;12.55;;;5.05;;
10900;SDS011;5503;53.208;10.392;2023-02-28T04:09:59;7.65;;;4.22;;
10900;SDS011;5503;53.208;10.392;2023-02-28T04:12:26;9.07;;;4.40;;
10900;SDS011;5503;53.208;10.392;2023-02-28T04:14:53;10.00;;;4.95;;
10900;SDS011;5503;53.208;10.392;2023-02-28T04:17:20;11.25;;;4.88;;
10900;SDS011;5503;53.208;10.392;2023-02-28T04:19:47;8.90;;;4.70;;
10900;SDS011;5503;53.208;10.392;2023-02-28T04:22:14;9.55;;;4.88;;
10900;SDS011;5503;53.208;10.392;2023-02-28T04:24:44;9.50;;;4.70;;
10900;SDS011;5503;53.208;10.392;2023-02-28T04:27:11;9.38;;;4.10;;
10900;SDS011;5503;53.208;10.392;2023-02-28T04:29:40;10.40;;;4.07;;
10900;SDS011;5503;53.208;10.392;2023-02-28T04:32:09;8.15;;;4.57;;
10900;SDS011;5503;53.208;10.392;2023-02-28T04:34:36;6.80;;;3.65;;
10900;SDS011;5503;53.208;10.392;2023-02-28T04:37:03;8.70;;;4.70;;
10900;SDS011;5503;53.208;10.392;2023-02-28T04:39:34;7.53;;;4.45;;
10900;SDS011;5503;53.208;10.392;2023-02-28T04:42:03;9.13;;;4.57;;
10900;SDS011;5503;53.208;10.392;2023-02-28T04:44:29;8.95;;;4.88;;
10900;SDS011;5503;53.208;10.392;2023-02-28T04:46:57;12.45;;;4.25;;
10900;SDS011;5503;53.208;10.392;2023-02-28T04:49:24;7.43;;;4.30;;
10900;SDS011;5503;53.208;10.392;2023-02-28T04:51:51;8.90;;;4.45;;
10900;SDS011;5503;53.208;10.392;2023-02-28T04:54:18;9.27;;;4.18;;
10900;SDS011;5503;53.208;10.392;2023-02-28T04:56:45;7.22;;;4.13;;
10900;SDS011;5503;53.208;10.392;2023-02-28T04:59:14;10.02;;;5.05;;
10900;SDS011;5503;53.208;10.392;2023-02-28T05:01:45;10.40;;;5.63;;
10900;SDS011;5503;53.208;10.392;2023-02-28T05:04:13;9.30;;;5.25;;
10900;SDS011;5503;53.208;10.392;2023-02-28T05:06:40;14.00;;;4.75;;
10900;SDS011;5503;53.208;10.392;2023-02-28T05:09:07;8.60;;;4.85;;
10900;SDS011;5503;53.208;10.392;2023-02-28T05:11:36;8.15;;;4.45;;
10900;SDS011;5503;53.208;10.392;2023-02-28T05:14:05;9.80;;;4.83;;
10900;SDS011;5503;53.208;10.392;2023-02-28T05:16:34;7.05;;;4.47;;
10900;SDS011;5503;53.208;10.392;2023-02-28T05:19:01;10.82;;;4.90;;
10900;SDS011;5503;53.208;10.392;2023-02-28T05:21:29;7.90;;;4.97;;
10900;SDS011;5503;53.208;10.392;2023-02-28T05:23:58;8.05;;;4.10;;
10900;SDS011;5503;53.208;10.392;2023-02-28T05:26:26;9.87;;;4.40;;
10900;SDS011;5503;53.208;10.392;2023-02-28T05:28:53;6.88;;;3.90;;
10900;SDS011;5503;53.208;10.392;2023-02-28T05:31:21;11.68;;;4.10;;
10900;SDS011;5503;53.208;10.392;2023-02-28T05:33:50;7.35;;;5.07;;
10900;SDS011;5503;53.208;10.392;2023-02-28T05:36:17;6.70;;;3.75;;
10900;SDS011;5503;53.208;10.392;2023-02-28T05:38:45;7.93;;;4.53;;
10900;SDS011;5503;53.208;10.392;2023-02-28T05:41:13;7.00;;;3.95;;
10900;SDS011;5503;53.208;10.392;2023-02-28T05:43:41;7.88;;;4.05;;
10900;SDS011;5503;53.208;10.392;2023-02-28T05:46:08;8.50;;;4.15;;
10900;SDS011;5503;53.208;10.392;2023-02-28T05:48:37;7.45;;;4.00;;
10900;SDS011;5503;53.208;10.392;2023-02-28T05:51:08;6.47;;;4.03;;
10900;SDS011;5503;53.208;10.392;2023-02-28T05:53:35;8.25;;;4.30;;
10900;SDS011;5503;53.208;10.392;2023-02-28T05:56:03;6.63;;;3.30;;
10900;SDS011;5503;53.208;10.392;2023-02-28T05:58:30;9.43;;;4.80;;
10900;SDS011;5503;53.208;10.392;2023-02-28T06:00:57;6.82;;;4.15;;
10900;SDS011;5503;53.208;10.392;2023-02-28T06:03:25;9.20;;;4.60;;
10900;SDS011;5503;53.208;10.392;2023-02-28T06:05:52;11.00;;;4.72;;
10900;SDS011;5503;53.208;10.392;2023-02-28T06:08:21;10.50;;;4.70;;
10900;SDS011;5503;53.208;10.392;2023-02-28T06:10:48;14.80;;;4.60;;
10900;SDS011;5503;53.208;10.392;2023-02-28T06:13:15;8.32;;;4.85;;
10900;SDS011;5503;53.208;10.392;2023-02-28T06:15:42;12.47;;;4.60;;
10900;SDS011;5503;53.208;10.392;2023-02-28T06:18:09;8.25;;;3.95;;
10900;SDS011;5503;53.208;10.392;2023-02-28T06:20:36;10.25;;;4.53;;
10900;SDS011;5503;53.208;10.392;2023-02-28T06:23:03;11.25;;;4.43;;
10900;SDS011;5503;53.208;10.392;2023-02-28T06:25:31;9.90;;;4.93;;
10900;SDS011;5503;53.208;10.392;2023-02-28T06:27:58;10.47;;;4.80;;
10900;SDS011;5503;53.208;10.392;2023-02-28T06:30:25;9.82;;;4.72;;
10900;SDS011;5503;53.208;10.392;2023-02-28T06:32:56;12.07;;;4.28;;
10900;SDS011;5503;53.208;10.392;2023-02-28T06:35:23;11.60;;;4.60;;
10900;SDS011;5503;53.208;10.392;2023-02-28T06:37:50;5.88;;;2.83;;
10900;SDS011;5503;53.208;10.392;2023-02-28T06:40:17;7.00;;;4.00;;
10900;SDS011;5503;53.208;10.392;2023-02-28T06:42:45;6.85;;;4.10;;
10900;SDS011;5503;53.208;10.392;2023-02-28T06:45:12;6.43;;;3.58;;
10900;SDS011;5503;53.208;10.392;2023-02-28T06:47:39;8.55;;;4.30;;
10900;SDS011;5503;53.208;10.392;2023-02-28T06:50:08;6.13;;;3.85;;
10900;SDS011;5503;53.208;10.392;2023-02-28T06:52:36;10.50;;;4.13;;
10900;SDS011;5503;53.208;10.392;2023-02-28T06:55:04;8.02;;;4.53;;
10900;SDS011;5503;53.208;10.392;2023-02-28T06:57:32;9.73;;;4.13;;
10900;SDS011;5503;53.208;10.392;2023-02-28T07:00:03;6.30;;;4.03;;
10900;SDS011;5503;53.208;10.392;2023-02-28T07:02:32;8.00;;;4.32;;
10900;SDS011;5503;53.208;10.392;2023-02-28T07:05:00;8.00;;;4.10;;
10900;SDS011;5503;53.208;10.392;2023-02-28T07:07:26;8.02;;;4.80;;
10900;SDS011;5503;53.208;10.392;2023-02-28T07:09:53;7.65;;;4.47;;
10900;SDS011;5503;53.208;10.392;2023-02-28T07:12:20;10.30;;;4.88;;
10900;SDS011;5503;53.208;10.392;2023-02-28T07:14:47;6.95;;;4.60;;
10900;SDS011;5503;53.208;10.392;2023-02-28T07:17:16;8.90;;;4.60;;
10900;SDS011;5503;53.208;10.392;2023-02-28T07:19:43;8.98;;;4.13;;
10900;SDS011;5503;53.208;10.392;2023-02-28T07:22:10;10.75;;;4.88;;
10900;SDS011;5503;53.208;10.392;2023-02-28T07:24:37;8.70;;;5.05;;
10900;SDS011;5503;53.208;10.392;2023-02-28T07:27:04;7.90;;;4.35;;
10900;SDS011;5503;53.208;10.392;2023-02-28T07:29:31;8.47;;;4.40;;
10900;SDS011;5503;53.208;10.392;2023-02-28T07:31:58;11.40;;;4.10;;
10900;SDS011;5503;53.208;10.392;2023-02-28T07:34:27;8.60;;;4.60;;
10900;SDS011;5503;53.208;10.392;2023-02-28T07:36:54;10.32;;;4.35;;
10900;SDS011;5503;53.208;10.392;2023-02-28T07:39:21;8.43;;;4.13;;
10900;SDS011;5503;53.208;10.392;2023-02-28T07:41:48;7.70;;;4.63;;
10900;SDS011;5503;53.208;10.392;2023-02-28T07:44:15;7.35;;;4.38;;
10900;SDS011;5503;53.208;10.392;2023-02-28T07:46:42;7.68;;;4.47;;
10900;SDS011;5503;53.208;10.392;2023-02-28T07:49:09;8.18;;;4.00;;
10900;SDS011;5503;53.208;10.392;2023-02-28T07:51:38;9.82;;;3.78;;
10900;SDS011;5503;53.208;10.392;2023-02-28T07:54:05;6.87;;;4.20;;
10900;SDS011;5503;53.208;10.392;2023-02-28T07:56:32;7.50;;;4.50;;
10900;SDS011;5503;53.208;10.392;2023-02-28T07:58:59;8.45;;;4.10;;
10900;SDS011;5503;53.208;10.392;2023-02-28T08:01:27;9.55;;;4.40;;
10900;SDS011;5503;53.208;10.392;2023-02-28T08:03:54;5.97;;;3.60;;
10900;SDS011;5503;53.208;10.392;2023-02-28T08:06:24;9.20;;;4.37;;
10900;SDS011;5503;53.208;10.392;2023-02-28T08:08:53;9.70;;;4.95;;
10900;SDS011;5503;53.208;10.392;2023-02-28T08:11:21;10.23;;;4.60;;
10900;SDS011;5503;53.208;10.392;2023-02-28T08:13:48;10.07;;;4.88;;
10900;SDS011;5503;53.208;10.392;2023-02-28T08:16:15;9.07;;;4.40;;
10900;SDS011;5503;53.208;10.392;2023-02-28T08:18:47;8.77;;;4.60;;
10900;SDS011;5503;53.208;10.392;2023-02-28T08:21:14;7.68;;;4.15;;
10900;SDS011;5503;53.208;10.392;2023-02-28T08:23:41;10.57;;;4.97;;
10900;SDS011;5503;53.208;10.392;2023-02-28T08:26:09;7.85;;;4.30;;
10900;SDS011;5503;53.208;10.392;2023-02-28T08:28:36;8.20;;;4.25;;
10900;SDS011;5503;53.208;10.392;2023-02-28T08:31:06;9.23;;;4.60;;
10900;SDS011;5503;53.208;10.392;2023-02-28T08:33:35;8.77;;;3.92;;
10900;SDS011;5503;53.208;10.392;2023-02-28T08:36:04;6.95;;;3.88;;
10900;SDS011;5503;53.208;10.392;2023-02-28T08:38:32;10.25;;;5.10;;
10900;SDS011;5503;53.208;10.392;2023-02-28T08:40:59;10.25;;;4.80;;
10900;SDS011;5503;53.208;10.392;2023-02-28T08:43:29;7.77;;;4.97;;
10900;SDS011;5503;53.208;10.392;2023-02-28T08:45:56;10.00;;;4.88;;
10900;SDS011;5503;53.208;10.392;2023-02-28T08:48:23;10.07;;;4.30;;
10900;SDS011;5503;53.208;10.392;2023-02-28T08:50:56;10.93;;;4.97;;
10900;SDS011;5503;53.208;10.392;2023-02-28T08:53:24;11.23;;;4.82;;
10900;SDS011;5503;53.208;10.392;2023-02-28T08:55:57;8.93;;;5.10;;
10900;SDS011;5503;53.208;10.392;2023-02-28T08:58:25;9.90;;;5.00;;
10900;SDS011;5503;53.208;10.392;2023-02-28T09:00:54;7.65;;;4.38;;
10900;SDS011;5503;53.208;10.392;2023-02-28T09:03:21;8.27;;;4.63;;
10900;SDS011;5503;53.208;10.392;2023-02-28T09:05:53;10.38;;;4.28;;
10900;SDS011;5503;53.208;10.392;2023-02-28T09:08:21;9.73;;;5.00;;
10900;SDS011;5503;53.208;10.392;2023-02-28T09:10:49;11.50;;;4.90;;
10900;SDS011;5503;53.208;10.392;2023-02-28T09:13:16;9.43;;;4.70;;
10900;SDS011;5503;53.208;10.392;2023-02-28T09:15:43;7.95;;;4.60;;
10900;SDS011;5503;53.208;10.392;2023-02-28T09:18:11;8.13;;;4.63;;
10900;SDS011;5503;53.208;10.392;2023-02-28T09:20:39;10.17;;;4.73;;
10900;SDS011;5503;53.208;10.392;2023-02-28T09:23:06;10.32;;;5.00;;
10900;SDS011;5503;53.208;10.392;2023-02-28T09:25:34;7.53;;;4.32;;
10900;SDS011;5503;53.208;10.392;2023-02-28T09:28:02;8.93;;;4.60;;
10900;SDS011;5503;53.208;10.392;2023-02-28T09:30:29;7.82;;;3.78;;
10900;SDS011;5503;53.208;10.392;2023-02-28T09:32:59;9.85;;;3.85;;
10900;SDS011;5503;53.208;10.392;2023-02-28T09:35:28;8.23;;;3.83;;
10900;SDS011;5503;53.208;10.392;2023-02-28T09:37:55;7.10;;;3.58;;
10900;SDS011;5503;53.208;10.392;2023-02-28T09:40:23;6.40;;;3.65;;
10900;SDS011;5503;53.208;10.392;2023-02-28T09:42:52;10.95;;;3.80;;
10900;SDS011;5503;53.208;10.392;2023-02-28T09:45:22;9.13;;;4.00;;
10900;SDS011;5503;53.208;10.392;2023-02-28T09:47:54;9.10;;;4.40;;
10900;SDS011;5503;53.208;10.392;2023-02-28T09:50:30;7.15;;;3.97;;
10900;SDS011;5503;53.208;10.392;2023-02-28T09:53:01;8.32;;;3.50;;
10900;SDS011;5503;53.208;10.392;2023-02-28T09:55:37;7.53;;;2.65;;
10900;SDS011;5503;53.208;10.392;2023-02-28T09:58:10;5.30;;;2.40;;
10900;SDS011;5503;53.208;10.392;2023-02-28T10:00:46;4.20;;;2.30;;
10900;SDS011;5503;53.208;10.392;2023-02-28T10:03:25;5.13;;;2.28;;
10900;SDS011;5503;53.208;10.392;2023-02-28T10:05:59;5.78;;;3.00;;
10900;SDS011;5503;53.208;10.392;2023-02-28T10:08:33;4.63;;;2.08;;
10900;SDS011;5503;53.208;10.392;2023-02-28T10:11:08;6.60;;;1.87;;
10900;SDS011;5503;53.208;10.392;2023-02-28T10:13:39;4.15;;;1.80;;
10900;SDS011;5503;53.208;10.392;2023-02-28T10:16:20;5.80;;;1.85;;
10900;SDS011;5503;53.208;10.392;2023-02-28T10:18:52;5.00;;;2.42;;
10900;SDS011;5503;53.208;10.392;2023-02-28T10:21:26;4.15;;;1.88;;
10900;SDS011;5503;53.208;10.392;2023-02-28T10:23:57;4.22;;;1.75;;
10900;SDS011;5503;53.208;10.392;2023-02-28T10:26:29;5.38;;;2.10;;
10900;SDS011;5503;53.208;10.392;2023-02-28T10:28:58;6.05;;;2.00;;
10900;SDS011;5503;53.208;10.392;2023-02-28T10:31:26;6.60;;;2.15;;
10900;SDS011;5503;53.208;10.392;2023-02-28T10:33:54;4.57;;;1.85;;
10900;SDS011;5503;53.208;10.392;2023-02-28T10:36:22;4.68;;;1.80;;
10900;SDS011;5503;53.208;10.392;2023-02-28T10:38:50;4.80;;;2.03;;
10900;SDS011;5503;53.208;10.392;2023-02-28T10:41:26;7.15;;;2.00;;
10900;SDS011;5503;53.208;10.392;2023-02-28T10:44:12;4.57;;;1.92;;
10900;SDS011;5503;53.208;10.392;2023-02-28T10:46:41;5.85;;;2.10;;
10900;SDS011;5503;53.208;10.392;2023-02-28T10:49:13;7.40;;;2.05;;
10900;SDS011;5503;53.208;10.392;2023-02-28T10:51:43;4.28;;;1.70;;
10900;SDS011;5503;53.208;10.392;2023-02-28T10:54:18;4.10;;;1.80;;
10900;SDS011;5503;53.208;10.392;2023-02-28T10:56:59;5.80;;;2.28;;
10900;SDS011;5503;53.208;10.392;2023-02-28T10:59:34;5.13;;;1.67;;
10900;SDS011;5503;53.208;10.392;2023-02-28T11:02:14;5.15;;;1.95;;
10900;SDS011;5503;53.208;10.392;2023-02-28T11:04:56;4.38;;;2.22;;
10900;SDS011;5503;53.208;10.392;2023-02-28T11:07:23;4.88;;;1.75;;
10900;SDS011;5503;53.208;10.392;2023-02-28T11:09:54;3.97;;;1.83;;
10900;SDS011;5503;53.208;10.392;2023-02-28T11:12:23;4.30;;;1.92;;
10900;SDS011;5503;53.208;10.392;2023-02-28T11:14:54;4.30;;;1.80;;
10900;SDS011;5503;53.208;10.392;2023-02-28T11:17:23;4.78;;;1.98;;
10900;SDS011;5503;53.208;10.392;2023-02-28T11:19:52;4.15;;;1.70;;
10900;SDS011;5503;53.208;10.392;2023-02-28T11:22:23;4.38;;;1.65;;
10900;SDS011;5503;53.208;10.392;2023-02-28T11:24:55;4.57;;;1.63;;
10900;SDS011;5503;53.208;10.392;2023-02-28T11:27:26;3.70;;;1.70;;
10900;SDS011;5503;53.208;10.392;2023-02-28T11:32:53;7.10;;;1.98;;
10900;SDS011;5503;53.208;10.392;2023-02-28T11:35:21;4.85;;;1.70;;
10900;SDS011;5503;53.208;10.392;2023-02-28T11:37:52;6.45;;;1.60;;
10900;SDS011;5503;53.208;10.392;2023-02-28T11:40:21;4.50;;;1.83;;
10900;SDS011;5503;53.208;10.392;2023-02-28T11:43:10;3.83;;;1.67;;
10900;SDS011;5503;53.208;10.392;2023-02-28T11:45:52;4.15;;;1.60;;
10900;SDS011;5503;53.208;10.392;2023-02-28T11:48:31;5.03;;;2.00;;
10900;SDS011;5503;53.208;10.392;2023-02-28T11:51:08;3.30;;;1.42;;
10900;SDS011;5503;53.208;10.392;2023-02-28T11:53:53;3.40;;;1.60;;
10900;SDS011;5503;53.208;10.392;2023-02-28T11:56:33;4.47;;;1.83;;
10900;SDS011;5503;53.208;10.392;2023-02-28T11:59:12;4.97;;;1.60;;
10900;SDS011;5503;53.208;10.392;2023-02-28T12:01:58;3.58;;;1.60;;
10900;SDS011;5503;53.208;10.392;2023-02-28T12:04:47;3.50;;;1.60;;
10900;SDS011;5503;53.208;10.392;2023-02-28T12:07:22;3.80;;;1.58;;
10900;SDS011;5503;53.208;10.392;2023-02-28T12:09:59;3.42;;;1.50;;
10900;SDS011;5503;53.208;10.392;2023-02-28T12:12:45;4.05;;;1.70;;
10900;SDS011;5503;53.208;10.392;2023-02-28T12:18:34;5.00;;;1.52;;
10900;SDS011;5503;53.208;10.392;2023-02-28T12:21:14;3.58;;;1.48;;
10900;SDS011;5503;53.208;10.392;2023-02-28T12:23:57;3.20;;;1.40;;
10900;SDS011;5503;53.208;10.392;2023-02-28T12:26:38;3.58;;;1.30;;
10900;SDS011;5503;53.208;10.392;2023-02-28T12:29:12;3.70;;;1.77;;
10900;SDS011;5503;53.208;10.392;2023-02-28T12:31:44;4.32;;;1.23;;
10900;SDS011;5503;53.208;10.392;2023-02-28T12:34:15;7.35;;;1.40;;
10900;SDS011;5503;53.208;10.392;2023-02-28T12:36:45;3.00;;;1.10;;
10900;SDS011;5503;53.208;10.392;2023-02-28T12:39:15;3.50;;;1.20;;
10900;SDS011;5503;53.208;10.392;2023-02-28T12:41:48;4.47;;;1.50;;
10900;SDS011;5503;53.208;10.392;2023-02-28T12:44:20;3.53;;;1.10;;
10900;SDS011;5503;53.208;10.392;2023-02-28T12:46:54;3.30;;;1.17;;
10900;SDS011;5503;53.208;10.392;2023-02-28T12:49:25;3.85;;;1.40;;
10900;SDS011;5503;53.208;10.392;2023-02-28T12:51:56;4.30;;;1.63;;
10900;SDS011;5503;53.208;10.392;2023-02-28T12:54:26;4.25;;;1.80;;
10900;SDS011;5503;53.208;10.392;2023-02-28T12:57:03;3.75;;;1.50;;
10900;SDS011;5503;53.208;10.392;2023-02-28T12:59:38;3.35;;;1.50;;
10900;SDS011;5503;53.208;10.392;2023-02-28T13:05:35;4.47;;;1.67;;
10900;SDS011;5503;53.208;10.392;2023-02-28T13:08:17;4.93;;;1.70;;
10900;SDS011;5503;53.208;10.392;2023-02-28T13:10:57;3.75;;;1.50;;
10900;SDS011;5503;53.208;10.392;2023-02-28T13:13:25;4.28;;;1.80;;
10900;SDS011;5503;53.208;10.392;2023-02-28T13:15:59;4.28;;;1.77;;
10900;SDS011;5503;53.208;10.392;2023-02-28T13:18:33;3.80;;;1.50;;
10900;SDS011;5503;53.208;10.392;2023-02-28T13:21:04;4.78;;;1.50;;
10900;SDS011;5503;53.208;10.392;2023-02-28T13:23:38;3.83;;;1.30;;
10900;SDS011;5503;53.208;10.392;2023-02-28T13:29:30;3.83;;;1.38;;
10900;SDS011;5503;53.208;10.392;2023-02-28T13:38:12;3.10;;;1.10;;
10900;SDS011;5503;53.208;10.392;2023-02-28T13:40:47;3.00;;;0.90;;
10900;SDS011;5503;53.208;10.392;2023-02-28T13:43:16;3.67;;;1.10;;
10900;SDS011;5503;53.208;10.392;2023-02-28T13:48:35;3.85;;;1.30;;
10900;SDS011;5503;53.208;10.392;2023-02-28T13:54:07;3.90;;;1.40;;
10900;SDS011;5503;53.208;10.392;2023-02-28T13:56:45;4.80;;;1.30;;
10900;SDS011;5503;53.208;10.392;2023-02-28T13:59:21;3.35;;;1.20;;
10900;SDS011;5503;53.208;10.392;2023-02-28T14:02:01;4.32;;;1.50;;
10900;SDS011;5503;53.208;10.392;2023-02-28T14:04:47;6.22;;;1.58;;
10900;SDS011;5503;53.208;10.392;2023-02-28T14:07:23;5.57;;;2.20;;
10900;SDS011;5503;53.208;10.392;2023-02-28T14:09:57;4.27;;;1.60;;
10900;SDS011;5503;53.208;10.392;2023-02-28T14:18:21;3.88;;;1.40;;
10900;SDS011;5503;53.208;10.392;2023-02-28T14:20:57;4.05;;;1.67;;
10900;SDS011;5503;53.208;10.392;2023-02-28T14:26:25;5.55;;;2.00;;
10900;SDS011;5503;53.208;10.392;2023-02-28T14:29:06;3.97;;;1.60;;
10900;SDS011;5503;53.208;10.392;2023-02-28T14:31:51;3.95;;;1.55;;
10900;SDS011;5503;53.208;10.392;2023-02-28T14:34:27;3.80;;;1.70;;
10900;SDS011;5503;53.208;10.392;2023-02-28T14:37:00;4.20;;;1.90;;
10900;SDS011;5503;53.208;10.392;2023-02-28T14:39:28;3.70;;;1.55;;
10900;SDS011;5503;53.208;10.392;2023-02-28T14:41:57;4.38;;;1.63;;
10900;SDS011;5503;53.208;10.392;2023-02-28T14:44:28;5.18;;;1.70;;
10900;SDS011;5503;53.208;10.392;2023-02-28T14:46:55;5.05;;;1.40;;
10900;SDS011;5503;53.208;10.392;2023-02-28T14:49:26;4.28;;;1.50;;
10900;SDS011;5503;53.208;10.392;2023-02-28T14:52:03;5.97;;;2.33;;
10900;SDS011;5503;53.208;10.392;2023-02-28T14:54:34;5.95;;;2.42;;
10900;SDS011;5503;53.208;10.392;2023-02-28T14:57:02;5.63;;;1.95;;
10900;SDS011;5503;53.208;10.392;2023-02-28T14:59:34;3.88;;;1.88;;
10900;SDS011;5503;53.208;10.392;2023-02-28T15:02:18;4.60;;;1.60;;
10900;SDS011;5503;53.208;10.392;2023-02-28T15:04:54;3.95;;;1.70;;
10900;SDS011;5503;53.208;10.392;2023-02-28T15:07:23;4.82;;;1.67;;
10900;SDS011;5503;53.208;10.392;2023-02-28T15:10:16;4.13;;;1.70;;
10900;SDS011;5503;53.208;10.392;2023-02-28T15:12:47;4.53;;;2.28;;
10900;SDS011;5503;53.208;10.392;2023-02-28T15:15:18;5.18;;;1.73;;
10900;SDS011;5503;53.208;10.392;2023-02-28T15:17:49;5.25;;;1.80;;
10900;SDS011;5503;53.208;10.392;2023-02-28T15:20:19;4.25;;;1.65;;
10900;SDS011;5503;53.208;10.392;2023-02-28T15:22:48;4.10;;;1.85;;
10900;SDS011;5503;53.208;10.392;2023-02-28T15:25:20;6.78;;;2.25;;
10900;SDS011;5503;53.208;10.392;2023-02-28T15:27:48;3.55;;;1.65;;
10900;SDS011;5503;53.208;10.392;2023-02-28T15:30:19;3.63;;;1.30;;
10900;SDS011;5503;53.208;10.392;2023-02-28T15:33:01;4.35;;;1.60;;
10900;SDS011;5503;53.208;10.392;2023-02-28T15:35:44;3.90;;;1.52;;
10900;SDS011;5503;53.208;10.392;2023-02-28T15:38:15;5.38;;;2.13;;
10900;SDS011;5503;53.208;10.392;2023-02-28T15:40:44;5.60;;;2.72;;
10900;SDS011;5503;53.208;10.392;2023-02-28T15:43:19;4.35;;;1.90;;
10900;SDS011;5503;53.208;10.392;2023-02-28T15:45:51;4.65;;;2.00;;
10900;SDS011;5503;53.208;10.392;2023-02-28T15:48:23;5.18;;;2.10;;
10900;SDS011;5503;53.208;10.392;2023-02-28T15:50:53;3.60;;;1.95;;
10900;SDS011;5503;53.208;10.392;2023-02-28T15:53:24;4.40;;;2.03;;
10900;SDS011;5503;53.208;10.392;2023-02-28T15:55:56;4.07;;;2.10;;